createdAt,value
2022-08-26T00:01:54.623Z,100139.86
2022-08-26T00:04:25.471Z,100134.30
2022-08-26T00:06:55.557Z,100133.73
2022-08-26T00:09:25.387Z,100130.55
2022-08-26T00:11:54.257Z,100132.80
2022-08-26T00:14:27.035Z,100132.80
2022-08-26T00:16:57.817Z,100132.73
2022-08-26T00:19:25.509Z,100128.80
2022-08-26T00:21:53.179Z,100128.11
2022-08-26T00:24:21.668Z,100130.98
2022-08-26T00:26:50.483Z,100127.40
2022-08-26T00:29:19.803Z,100126.94
2022-08-26T00:31:49.549Z,100125.64
2022-08-26T00:34:19.422Z,100123.23
2022-08-26T00:36:51.818Z,100123.41
2022-08-26T00:39:20.969Z,100121.17
2022-08-26T00:41:48.704Z,100121.23
2022-08-26T00:44:17.532Z,100121.46
2022-08-26T00:46:51.044Z,100123.16
2022-08-26T00:49:25.880Z,100121.25
2022-08-26T00:51:55.532Z,100122.84
2022-08-26T00:54:27.421Z,100122.77
2022-08-26T00:57:16.307Z,100119.58
2022-08-26T00:59:52.925Z,100124.05
2022-08-26T01:02:21.736Z,100116.08
2022-08-26T01:04:57.066Z,100123.11
2022-08-26T01:07:30.295Z,100118.56
2022-08-26T01:10:01.807Z,100116.17
2022-08-26T01:12:33.809Z,100116.27
2022-08-26T01:15:03.055Z,100114.42
2022-08-26T01:17:33.777Z,100114.92
2022-08-26T01:20:21.681Z,100115.95
2022-08-26T01:22:52.368Z,100112.30
2022-08-26T01:25:21.588Z,100115.65
2022-08-26T01:27:51.392Z,100117.15
2022-08-26T01:30:19.988Z,100116.69
2022-08-26T01:32:50.032Z,100118.04
2022-08-26T01:35:18.786Z,100115.10
2022-08-26T01:37:49.872Z,100117.26
2022-08-26T01:40:25.561Z,100119.24
2022-08-26T01:42:54.681Z,100120.45
2022-08-26T01:45:29.866Z,100120.20
2022-08-26T01:48:01.789Z,100119.41
2022-08-26T01:50:33.326Z,100114.55
2022-08-26T01:53:06.067Z,100116.71
2022-08-26T01:55:34.499Z,100117.90
2022-08-26T01:58:07.894Z,100114.31
2022-08-26T02:00:36.509Z,100116.94
2022-08-26T02:03:22.987Z,100114.45
2022-08-26T02:05:55.178Z,100117.71
2022-08-26T02:08:36.910Z,100116.77
2022-08-26T02:11:05.328Z,100119.79
2022-08-26T02:13:37.372Z,100120.73
2022-08-26T02:16:06.043Z,100120.82
2022-08-26T02:18:38.811Z,100124.16
2022-08-26T02:21:08.357Z,100122.16
2022-08-26T02:23:36.003Z,100127.75
2022-08-26T02:26:09.965Z,100122.25
2022-08-26T02:28:46.494Z,100125.11
2022-08-26T02:31:14.548Z,100123.92
2022-08-26T02:33:43.033Z,100122.95
2022-08-26T02:36:12.163Z,100117.53
2022-08-26T02:38:41.262Z,100118.00
2022-08-26T02:41:11.201Z,100115.59
2022-08-26T02:43:38.809Z,100118.45
2022-08-26T02:46:06.552Z,100118.84
2022-08-26T02:48:34.533Z,100121.45
2022-08-26T02:51:03.788Z,100118.52
2022-08-26T02:53:35.467Z,100119.86
2022-08-26T02:56:07.154Z,100117.81
2022-08-26T02:58:35.329Z,100122.10
2022-08-26T03:01:04.978Z,100123.77
2022-08-26T03:03:33.560Z,100123.13
2022-08-26T03:06:01.480Z,100120.17
2022-08-26T03:08:29.166Z,100114.45
2022-08-26T03:10:56.863Z,100112.70
2022-08-26T03:13:24.444Z,100109.96
2022-08-26T03:15:52.133Z,100108.08
2022-08-26T03:18:20.496Z,100109.02
2022-08-26T03:20:48.416Z,100107.35
2022-08-26T03:23:16.537Z,100109.02
2022-08-26T03:25:53.025Z,100112.21
2022-08-26T03:28:20.665Z,100109.89
2022-08-26T03:30:49.064Z,100114.59
2022-08-26T03:33:16.930Z,100111.88
2022-08-26T03:35:47.149Z,100114.98
2022-08-26T03:38:15.309Z,100112.11
2022-08-26T03:40:43.598Z,100110.98
2022-08-26T03:43:12.381Z,100109.37
2022-08-26T03:45:40.970Z,100107.91
2022-08-26T03:48:11.328Z,100105.27
2022-08-26T03:50:39.784Z,100104.55
2022-08-26T03:53:12.838Z,100104.94
2022-08-26T03:55:42.170Z,100105.56
2022-08-26T03:58:10.961Z,100102.23
2022-08-26T04:00:39.359Z,100101.66
2022-08-26T04:03:09.978Z,100100.55
2022-08-26T04:05:38.146Z,100100.70
2022-08-26T04:08:06.920Z,100099.50
2022-08-26T04:10:38.301Z,100099.34
2022-08-26T04:13:06.413Z,100101.24
2022-08-26T04:15:34.295Z,100104.34
2022-08-26T04:18:01.895Z,100102.52
2022-08-26T04:20:29.590Z,100105.79
2022-08-26T04:22:57.244Z,100098.96
2022-08-26T04:25:24.896Z,100102.63
2022-08-26T04:27:52.559Z,100103.91
2022-08-26T04:30:20.408Z,100106.71
2022-08-26T04:32:49.434Z,100105.52
2022-08-26T04:35:17.227Z,100106.88
2022-08-26T04:37:44.834Z,100102.90
2022-08-26T04:40:12.537Z,100105.98
2022-08-26T04:42:40.280Z,100105.11
2022-08-26T04:45:10.183Z,100107.04
2022-08-26T04:47:38.436Z,100106.70
2022-08-26T04:50:07.691Z,100108.38
2022-08-26T04:52:36.505Z,100113.48
2022-08-26T04:55:08.617Z,100109.55
2022-08-26T04:57:36.724Z,100110.04
2022-08-26T05:00:11.993Z,100112.91
2022-08-26T05:02:40.780Z,100109.25
2022-08-26T05:05:08.833Z,100113.72
2022-08-26T05:07:36.497Z,100114.36
2022-08-26T05:10:04.692Z,100112.48
2022-08-26T05:12:36.766Z,100111.86
2022-08-26T05:15:06.774Z,100113.54
2022-08-26T05:17:34.453Z,100116.09
2022-08-26T05:20:02.218Z,100114.98
2022-08-26T05:22:29.910Z,100110.77
2022-08-26T05:24:57.591Z,100116.42
2022-08-26T05:27:25.247Z,100113.80
2022-08-26T05:29:57.162Z,100115.40
2022-08-26T05:32:24.856Z,100112.29
2022-08-26T05:34:56.971Z,100114.36
2022-08-26T05:37:26.326Z,100115.52
2022-08-26T05:39:53.988Z,100114.40
2022-08-26T05:42:21.932Z,100111.60
2022-08-26T05:44:53.995Z,100110.95
2022-08-26T05:47:26.147Z,100110.94
2022-08-26T05:49:54.538Z,100110.95
2022-08-26T05:52:22.180Z,100110.70
2022-08-26T05:54:53.544Z,100112.83
2022-08-26T05:57:23.157Z,100112.19
2022-08-26T05:59:52.221Z,100111.36
2022-08-26T06:02:20.491Z,100107.59
2022-08-26T06:04:48.213Z,100108.38
2022-08-26T06:07:16.877Z,100106.52
2022-08-26T06:09:46.256Z,100107.95
2022-08-26T06:12:14.111Z,100110.48
2022-08-26T06:14:43.398Z,100110.48
2022-08-26T06:17:12.256Z,100110.27
2022-08-26T06:19:41.342Z,100109.54
2022-08-26T06:22:29.137Z,100114.16
2022-08-26T06:25:12.788Z,100115.59
2022-08-26T06:27:40.411Z,100114.45
2022-08-26T06:30:09.853Z,100111.57
2022-08-26T06:32:37.555Z,100111.39
2022-08-26T06:35:06.229Z,100111.21
2022-08-26T06:37:40.308Z,100111.18
2022-08-26T06:40:09.670Z,100109.23
2022-08-26T06:42:39.602Z,100114.33
2022-08-26T06:45:08.997Z,100115.61
2022-08-26T06:47:37.003Z,100116.59
2022-08-26T06:50:05.349Z,100120.94
2022-08-26T06:52:33.067Z,100121.67
2022-08-26T06:55:02.986Z,100125.10
2022-08-26T06:57:32.762Z,100130.15
2022-08-26T07:00:12.913Z,100132.55
2022-08-26T07:02:41.835Z,100130.48
2022-08-26T07:05:15.077Z,100128.17
2022-08-26T07:07:42.749Z,100129.59
2022-08-26T07:10:10.743Z,100125.11
2022-08-26T07:12:38.813Z,100125.72
2022-08-26T07:15:06.838Z,100125.23
2022-08-26T07:17:35.951Z,100123.91
2022-08-26T07:20:07.731Z,100120.79
2022-08-26T07:22:37.056Z,100121.59
2022-08-26T07:25:07.969Z,100121.50
2022-08-26T07:27:37.919Z,100118.39
2022-08-26T07:30:07.768Z,100121.46
2022-08-26T07:32:37.408Z,100119.48
2022-08-26T07:35:06.301Z,100121.91
2022-08-26T07:37:39.079Z,100122.83
2022-08-26T07:40:07.640Z,100124.86
2022-08-26T07:42:37.176Z,100120.50
2022-08-26T07:45:05.857Z,100120.89
2022-08-26T07:47:33.520Z,100118.91
2022-08-26T07:50:01.297Z,100115.30
2022-08-26T07:52:30.695Z,100106.40
2022-08-26T07:55:01.324Z,100108.86
2022-08-26T07:57:30.425Z,100112.58
2022-08-26T07:59:59.522Z,100109.84
2022-08-26T08:02:29.101Z,100111.20
2022-08-26T08:04:58.349Z,100110.30
2022-08-26T08:07:44.177Z,100110.77
2022-08-26T08:10:19.222Z,100114.55
2022-08-26T08:12:49.960Z,100114.84
2022-08-26T08:15:20.094Z,100112.92
2022-08-26T08:17:50.533Z,100112.54
2022-08-26T08:20:22.053Z,100115.08
2022-08-26T08:22:51.970Z,100113.81
2022-08-26T08:25:21.685Z,100114.63
2022-08-26T08:27:49.671Z,100113.10
2022-08-26T08:30:20.940Z,100114.67
2022-08-26T08:32:52.278Z,100117.27
2022-08-26T08:35:23.886Z,100117.20
2022-08-26T08:37:54.651Z,100115.23
2022-08-26T08:40:26.009Z,100115.08
2022-08-26T08:43:13.418Z,100117.01
2022-08-26T08:45:53.624Z,100113.72
2022-08-26T08:48:27.758Z,100116.86
2022-08-26T08:50:58.839Z,100116.87
2022-08-26T08:53:41.542Z,100115.05
2022-08-26T08:56:46.180Z,100114.46
2022-08-26T08:59:35.190Z,100113.29
2022-08-26T09:02:55.819Z,100118.11
2022-08-26T09:05:45.448Z,100112.06
2022-08-26T09:08:27.357Z,100115.62
2022-08-26T09:11:01.851Z,100115.84
2022-08-26T09:13:31.799Z,100116.27
2022-08-26T09:16:31.973Z,100111.11
2022-08-26T09:19:31.570Z,100114.30
2022-08-26T09:22:02.167Z,100111.88
2022-08-26T09:24:41.764Z,100110.28
2022-08-26T09:27:40.377Z,100109.34
2022-08-26T09:30:30.290Z,100108.63
2022-08-26T09:33:14.710Z,100109.02
2022-08-26T09:35:48.826Z,100107.21
2022-08-26T09:38:27.885Z,100105.59
2022-08-26T09:41:02.752Z,100101.16
2022-08-26T09:43:33.055Z,100101.52
2022-08-26T09:46:24.530Z,100097.67
2022-08-26T09:48:53.276Z,100096.98
2022-08-26T09:51:23.149Z,100096.11
2022-08-26T09:53:54.831Z,100099.47
2022-08-26T09:56:25.798Z,100097.61
2022-08-26T09:58:56.569Z,100095.06
2022-08-26T10:01:51.233Z,100094.86
2022-08-26T10:04:28.033Z,100093.08
2022-08-26T10:07:00.869Z,100095.44
2022-08-26T10:09:36.069Z,100094.18
2022-08-26T10:12:13.224Z,100085.83
2022-08-26T10:14:50.177Z,100085.52
2022-08-26T10:17:26.559Z,100084.21
2022-08-26T10:20:03.759Z,100080.19
2022-08-26T10:22:46.332Z,100081.39
2022-08-26T10:25:20.164Z,100080.83
2022-08-26T10:28:06.752Z,100079.83
2022-08-26T10:30:42.958Z,100076.97
2022-08-26T10:33:18.374Z,100071.10
2022-08-26T10:35:58.707Z,100068.86
2022-08-26T10:38:34.172Z,100069.69
2022-08-26T10:41:11.268Z,100067.88
2022-08-26T10:43:51.513Z,100063.35
2022-08-26T10:46:27.462Z,100066.55
2022-08-26T10:49:06.500Z,100062.66
2022-08-26T10:51:42.068Z,100061.09
2022-08-26T10:54:26.010Z,100057.04
2022-08-26T10:57:12.700Z,100056.75
2022-08-26T11:00:24.599Z,100055.75
2022-08-26T11:03:22.110Z,100049.95
2022-08-26T11:06:25.598Z,100045.50
2022-08-26T11:08:59.670Z,100047.20
2022-08-26T11:11:45.469Z,100043.06
2022-08-26T11:14:28.652Z,100037.89
2022-08-26T11:16:58.876Z,100034.81
2022-08-26T11:20:01.568Z,100032.98
2022-08-26T11:22:37.961Z,100029.11
2022-08-26T11:25:20.141Z,100029.25
2022-08-26T11:27:47.693Z,100025.42
2022-08-26T11:30:18.560Z,100024.25
2022-08-26T11:32:58.205Z,100021.61
2022-08-26T11:35:46.164Z,100021.13
2022-08-26T11:38:27.165Z,100016.69
2022-08-26T11:40:59.822Z,100015.54
2022-08-26T11:43:32.681Z,100014.83
2022-08-26T11:46:10.674Z,100017.16
2022-08-26T11:48:43.433Z,100012.33
2022-08-26T11:51:27.007Z,100012.73
2022-08-26T11:54:15.817Z,100008.27
2022-08-26T11:56:47.732Z,100000.47
2022-08-26T11:59:23.907Z,99997.92
2022-08-26T12:01:54.477Z,99996.73
2022-08-26T12:04:28.600Z,99994.80
2022-08-26T12:06:58.521Z,99992.00
2022-08-26T12:09:34.288Z,99995.22
2022-08-26T12:12:22.003Z,99990.45
2022-08-26T12:15:10.459Z,99991.98
2022-08-26T12:17:39.471Z,99986.00
2022-08-26T12:20:17.942Z,99982.94
2022-08-26T12:22:48.209Z,99980.44
2022-08-26T12:25:23.946Z,99978.66
2022-08-26T12:27:54.000Z,99976.83
2022-08-26T12:30:24.495Z,99976.39
2022-08-26T12:33:22.108Z,99972.38
2022-08-26T12:35:56.302Z,99968.77
2022-08-26T12:38:26.670Z,99965.55
2022-08-26T12:40:56.849Z,99964.44
2022-08-26T12:43:43.131Z,99964.16
2022-08-26T12:46:18.482Z,99961.56
2022-08-26T12:48:49.592Z,99958.05
2022-08-26T12:51:27.023Z,99954.67
2022-08-26T12:53:55.390Z,99955.02
2022-08-26T12:56:33.908Z,99954.50
2022-08-26T12:59:11.163Z,99952.42
2022-08-26T13:01:44.949Z,99951.46
2022-08-26T13:04:46.074Z,99944.36
2022-08-26T13:07:20.470Z,99943.40
2022-08-26T13:09:50.420Z,99938.32
2022-08-26T13:12:37.157Z,99938.55
2022-08-26T13:15:06.931Z,99935.61
2022-08-26T13:17:35.915Z,99931.54
2022-08-26T13:20:04.537Z,99934.71
2022-08-26T13:22:33.782Z,99924.27
2022-08-26T13:25:01.747Z,99921.38
2022-08-26T13:27:29.561Z,99921.25
2022-08-26T13:29:58.925Z,99924.50
2022-08-26T13:32:27.818Z,99929.71
2022-08-26T13:34:57.780Z,99922.39
2022-08-26T13:37:34.155Z,99923.43
2022-08-26T13:40:07.613Z,99914.44
2022-08-26T13:42:35.556Z,99919.94
2022-08-26T13:45:03.781Z,99916.17
2022-08-26T13:47:31.438Z,99914.36
2022-08-26T13:49:59.124Z,99905.68
2022-08-26T13:52:30.393Z,99900.74
2022-08-26T13:55:00.504Z,99894.25
2022-08-26T13:57:30.276Z,99894.52
2022-08-26T13:59:59.334Z,99889.20
2022-08-26T14:02:28.217Z,99885.04
2022-08-26T14:04:56.404Z,99882.20
2022-08-26T14:07:24.417Z,99879.52
2022-08-26T14:09:52.614Z,99875.55
2022-08-26T14:12:20.355Z,99875.19
2022-08-26T14:14:48.137Z,99872.02
2022-08-26T14:17:20.885Z,99872.90
2022-08-26T14:19:50.269Z,99868.95
2022-08-26T14:22:21.021Z,99866.66
2022-08-26T14:24:49.165Z,99864.95
2022-08-26T14:27:16.949Z,99861.04
2022-08-26T14:29:44.579Z,99859.74
2022-08-26T14:32:21.034Z,99858.63
2022-08-26T14:34:50.163Z,99860.42
2022-08-26T14:37:19.536Z,99859.02
2022-08-26T14:39:47.767Z,99854.13
2022-08-26T14:42:20.496Z,99854.87
2022-08-26T14:44:55.350Z,99848.73
2022-08-26T14:47:23.021Z,99848.33
2022-08-26T14:49:50.739Z,99848.95
2022-08-26T14:52:18.381Z,99843.53
2022-08-26T14:54:46.006Z,99844.67
2022-08-26T14:57:14.970Z,99840.15
2022-08-26T14:59:50.202Z,99840.05
2022-08-26T15:02:33.362Z,99838.70
2022-08-26T15:05:02.740Z,99838.33
2022-08-26T15:07:31.016Z,99838.48
2022-08-26T15:09:59.241Z,99836.84
2022-08-26T15:12:27.686Z,99833.62
2022-08-26T15:14:55.516Z,99832.06
2022-08-26T15:17:23.382Z,99833.27
2022-08-26T15:19:51.588Z,99829.34
2022-08-26T15:22:19.278Z,99828.29
2022-08-26T15:24:47.007Z,99824.50
2022-08-26T15:27:19.639Z,99823.04
2022-08-26T15:29:47.617Z,99820.83
2022-08-26T15:32:15.663Z,99820.33
2022-08-26T15:34:43.812Z,99822.95
2022-08-26T15:37:11.913Z,99819.29
2022-08-26T15:39:39.870Z,99819.11
2022-08-26T15:42:07.573Z,99820.36
2022-08-26T15:44:36.605Z,99817.65
2022-08-26T15:47:04.432Z,99813.55
2022-08-26T15:49:32.857Z,99818.38
2022-08-26T15:52:02.762Z,99812.98
2022-08-26T15:54:33.597Z,99811.37
2022-08-26T15:57:02.483Z,99807.02
2022-08-26T15:59:33.514Z,99809.39
2022-08-26T16:02:01.782Z,99808.35
2022-08-26T16:04:29.625Z,99812.02
2022-08-26T16:06:57.380Z,99806.77
2022-08-26T16:09:27.056Z,99806.50
2022-08-26T16:11:58.423Z,99800.13
2022-08-26T16:14:26.989Z,99803.34
2022-08-26T16:16:54.799Z,99799.48
2022-08-26T16:19:22.589Z,99795.73
2022-08-26T16:21:51.401Z,99796.71
2022-08-26T16:24:24.789Z,99796.30
2022-08-26T16:26:54.589Z,99796.78
2022-08-26T16:29:22.248Z,99798.95
2022-08-26T16:31:53.111Z,99795.62
2022-08-26T16:34:21.777Z,99794.27
2022-08-26T16:36:49.553Z,99794.31
2022-08-26T16:39:17.274Z,99791.33
2022-08-26T16:41:44.957Z,99789.05
2022-08-26T16:44:12.691Z,99787.39
2022-08-26T16:46:41.207Z,99787.80
2022-08-26T16:49:08.996Z,99785.90
2022-08-26T16:51:38.057Z,99786.23
2022-08-26T16:54:08.532Z,99789.73
2022-08-26T16:56:37.170Z,99787.26
2022-08-26T16:59:07.014Z,99787.11
2022-08-26T17:01:34.931Z,99786.44
2022-08-26T17:04:02.848Z,99782.15
2022-08-26T17:06:30.791Z,99789.88
2022-08-26T17:08:58.912Z,99789.09
2022-08-26T17:11:26.613Z,99787.16
2022-08-26T17:13:54.270Z,99789.01
2022-08-26T17:16:26.418Z,99784.67
2022-08-26T17:18:57.190Z,99785.91
2022-08-26T17:21:26.431Z,99791.02
2022-08-26T17:23:55.063Z,99791.13
2022-08-26T17:26:22.894Z,99792.80
2022-08-26T17:28:51.369Z,99786.65
2022-08-26T17:31:20.276Z,99789.34
2022-08-26T17:33:53.926Z,99788.73
2022-08-26T17:36:27.794Z,99786.63
2022-08-26T17:38:57.690Z,99790.98
2022-08-26T17:41:26.388Z,99793.73
2022-08-26T17:43:54.094Z,99791.42
2022-08-26T17:46:21.962Z,99791.08
2022-08-26T17:48:49.751Z,99789.72
2022-08-26T17:51:19.462Z,99795.76
2022-08-26T17:53:48.623Z,99796.78
2022-08-26T17:56:19.821Z,99797.89
2022-08-26T17:58:47.945Z,99798.98
2022-08-26T18:01:21.105Z,99799.59
2022-08-26T18:03:49.595Z,99804.38
2022-08-26T18:06:17.401Z,99799.48
2022-08-26T18:08:45.113Z,99801.85
2022-08-26T18:11:17.128Z,99801.40
2022-08-26T18:13:46.962Z,99804.32
2022-08-26T18:16:17.579Z,99805.73
2022-08-26T18:18:47.254Z,99807.00
2022-08-26T18:21:17.891Z,99806.71
2022-08-26T18:23:46.833Z,99807.67
2022-08-26T18:26:33.002Z,99810.64
2022-08-26T18:29:01.739Z,99816.06
2022-08-26T18:31:30.293Z,99820.30
2022-08-26T18:34:02.311Z,99832.50
2022-08-26T18:36:33.178Z,99834.73
2022-08-26T18:39:02.039Z,99834.77
2022-08-26T18:41:32.667Z,99833.88
2022-08-26T18:44:00.658Z,99836.64
2022-08-26T18:46:28.499Z,99836.50
2022-08-26T18:48:57.184Z,99838.93
2022-08-26T18:51:29.564Z,99837.29
2022-08-26T18:53:58.875Z,99838.68
2022-08-26T18:56:27.722Z,99839.87
2022-08-26T18:58:55.403Z,99840.10
2022-08-26T19:01:27.219Z,99840.70
2022-08-26T19:04:00.167Z,99836.91
2022-08-26T19:06:32.699Z,99835.73
2022-08-26T19:09:01.220Z,99832.02
2022-08-26T19:11:31.793Z,99833.38
2022-08-26T19:14:06.467Z,99832.30
2022-08-26T19:16:35.542Z,99832.13
2022-08-26T19:19:04.274Z,99834.47
2022-08-26T19:21:33.768Z,99832.93
2022-08-26T19:24:04.107Z,99834.61
2022-08-26T19:26:32.130Z,99838.14
2022-08-26T19:29:00.358Z,99833.86
2022-08-26T19:31:28.332Z,99834.44
2022-08-26T19:33:57.925Z,99836.70
2022-08-26T19:36:27.427Z,99835.98
2022-08-26T19:38:56.637Z,99837.36
2022-08-26T19:41:37.162Z,99836.36
2022-08-26T19:44:33.394Z,99838.27
2022-08-26T19:47:03.431Z,99838.91
2022-08-26T19:49:32.068Z,99842.16
2022-08-26T19:51:59.752Z,99844.00
2022-08-26T19:54:28.168Z,99843.90
2022-08-26T19:56:55.841Z,99842.65
2022-08-26T19:59:23.595Z,99843.01
2022-08-26T20:01:55.195Z,99843.85
2022-08-26T20:04:32.942Z,99847.04
2022-08-26T20:07:02.276Z,99848.45
2022-08-26T20:09:31.361Z,99852.46
2022-08-26T20:11:59.398Z,99853.89
2022-08-26T20:14:27.881Z,99854.82
2022-08-26T20:16:55.709Z,99850.86
2022-08-26T20:19:39.497Z,99852.36
2022-08-26T20:22:08.039Z,99850.89
2022-08-26T20:24:37.975Z,99849.04
2022-08-26T20:27:07.931Z,99846.80
2022-08-26T20:29:37.191Z,99846.29
2022-08-26T20:32:07.870Z,99848.48
2022-08-26T20:34:36.694Z,99842.29
2022-08-26T20:37:05.360Z,99848.49
2022-08-26T20:39:33.062Z,99847.71
2022-08-26T20:42:00.727Z,99844.34
2022-08-26T20:44:28.537Z,99844.56
2022-08-26T20:46:56.608Z,99846.52
2022-08-26T20:49:24.209Z,99848.48
2022-08-26T20:51:52.987Z,99844.55
2022-08-26T20:54:27.571Z,99840.00
2022-08-26T20:56:58.018Z,99842.52
2022-08-26T20:59:26.797Z,99839.43
2022-08-26T21:01:54.842Z,99842.11
2022-08-26T21:04:26.036Z,99840.86
2022-08-26T21:06:54.638Z,99838.51
2022-08-26T21:09:24.192Z,99840.55
2022-08-26T21:11:52.871Z,99837.98
2022-08-26T21:14:23.215Z,99835.30
2022-08-26T21:16:53.623Z,99838.80
2022-08-26T21:19:21.361Z,99840.85
2022-08-26T21:21:50.079Z,99837.94
2022-08-26T21:24:18.076Z,99841.64
2022-08-26T21:26:47.135Z,99843.61
2022-08-26T21:29:15.179Z,99840.54
2022-08-26T21:45:52.825Z,99843.02
2022-08-26T21:48:22.882Z,99842.89
2022-08-26T21:50:57.380Z,99840.27
2022-08-26T21:53:25.195Z,99840.06
2022-08-26T21:55:52.842Z,99841.02
2022-08-26T21:58:20.455Z,99840.88
2022-08-26T22:00:50.659Z,99838.77
2022-08-26T22:03:18.444Z,99837.35
2022-08-26T22:05:51.057Z,99838.31
2022-08-26T22:08:20.417Z,99836.16
2022-08-26T22:10:51.953Z,99838.24
2022-08-26T22:13:26.054Z,99835.40
2022-08-26T22:15:54.041Z,99837.96
2022-08-26T22:18:21.646Z,99837.33
2022-08-26T22:20:49.313Z,99836.70
2022-08-26T22:23:17.066Z,99835.06
2022-08-26T22:25:45.219Z,99836.59
2022-08-26T22:28:12.984Z,99835.50
2022-08-26T22:30:42.834Z,99842.38
2022-08-26T22:33:11.150Z,99833.30
2022-08-26T22:35:50.697Z,99838.84
2022-08-26T22:38:19.808Z,99843.23
2022-08-26T22:40:56.357Z,99844.05
2022-08-26T22:43:25.755Z,99843.88
2022-08-26T22:45:55.421Z,99840.41
2022-08-26T22:48:26.410Z,99841.78
2022-08-26T22:50:59.684Z,99844.63
2022-08-26T22:53:28.067Z,99838.42
2022-08-26T22:55:55.898Z,99835.98
2022-08-26T22:58:30.454Z,99835.39
2022-08-26T23:00:59.450Z,99832.07
2022-08-26T23:03:27.924Z,99830.82
2022-08-26T23:05:55.948Z,99827.36
2022-08-26T23:08:24.911Z,99826.11
2022-08-26T23:10:52.676Z,99820.89
2022-08-26T23:13:20.499Z,99821.39
2022-08-26T23:15:48.179Z,99819.73
2022-08-26T23:18:15.993Z,99814.17
2022-08-26T23:20:43.701Z,99818.83
2022-08-26T23:23:12.920Z,99823.71
2022-08-26T23:25:41.083Z,99820.39
2022-08-26T23:28:09.345Z,99826.43
2022-08-26T23:30:37.161Z,99825.04
2022-08-26T23:33:04.851Z,99820.51
2022-08-26T23:35:32.546Z,99820.54
2022-08-26T23:38:00.720Z,99815.40
2022-08-26T23:40:32.356Z,99810.08
2022-08-26T23:43:05.513Z,99806.66
2022-08-26T23:45:34.798Z,99800.96
2022-08-26T23:48:03.375Z,99803.32
2022-08-26T23:50:47.629Z,99804.34
2022-08-26T23:53:20.018Z,99801.57
2022-08-26T23:55:49.834Z,99795.14
2022-08-26T23:58:19.207Z,99794.67
